Time;durP1;ratioP1;P1;durP2;ratioP2;P2;SDS_P1;SDS_P2;PMS_P1;PMS_P2;Temp;Humidity;BMP_temperature;BMP_pressure;BME280_temperature;BME280_humidity;BME280_pressure;Samples;Min_cycle;Max_cycle;Signal;HPM_P1;HPM_P2
2023/09/29 00:00:31;;;;;;;2.13;1.77;;;;;;;;;;7302560;19;140765;-77
2023/09/29 00:02:55;;;;;;;3.10;1.60;;;;;;;;;;7302673;19;140494;-77
2023/09/29 00:05:22;;;;;;;2.13;1.52;;;;;;;;;;7302562;19;140653;-77
2023/09/29 00:07:52;;;;;;;1.75;1.55;;;;;;;;;;7304453;19;140820;-77
2023/09/29 00:10:21;;;;;;;2.73;2.10;;;;;;;;;;7302985;19;141878;-77
2023/09/29 00:12:49;;;;;;;2.85;1.60;;;;;;;;;;7302691;19;140684;-77
2023/09/29 00:15:19;;;;;;;3.00;1.80;;;;;;;;;;7303268;19;140657;-76
2023/09/29 00:17:48;;;;;;;2.95;1.70;;;;;;;;;;7300019;19;141257;-78
2023/09/29 00:20:24;;;;;;;3.55;1.80;;;;;;;;;;7300171;19;143546;-77
2023/09/29 00:22:53;;;;;;;2.15;1.48;;;;;;;;;;7302890;19;140604;-76
2023/09/29 00:25:20;;;;;;;1.88;1.70;;;;;;;;;;7303359;19;140605;-77
2023/09/29 00:27:47;;;;;;;2.03;1.65;;;;;;;;;;7301736;19;141246;-76
2023/09/29 00:30:15;;;;;;;2.78;1.73;;;;;;;;;;7302570;19;140757;-76
2023/09/29 00:32:46;;;;;;;1.98;1.60;;;;;;;;;;7301258;19;140832;-76
2023/09/29 00:37:53;;;;;;;3.88;1.98;;;;;;;;;;7302338;19;140934;-76
2023/09/29 00:40:21;;;;;;;2.38;1.63;;;;;;;;;;7301076;19;141805;-77
2023/09/29 00:42:48;;;;;;;2.60;1.50;;;;;;;;;;7302090;19;141000;-76
2023/09/29 00:45:19;;;;;;;3.08;1.77;;;;;;;;;;7301971;19;140642;-77
2023/09/29 00:47:50;;;;;;;1.88;1.40;;;;;;;;;;7301057;19;141697;-76
2023/09/29 00:50:20;;;;;;;2.15;1.75;;;;;;;;;;7301073;19;144020;-77
2023/09/29 00:52:50;;;;;;;2.15;1.50;;;;;;;;;;7302311;19;140326;-76
2023/09/29 00:55:17;;;;;;;1.95;1.70;;;;;;;;;;7300980;19;140557;-77
2023/09/29 00:57:48;;;;;;;2.28;1.70;;;;;;;;;;7301666;19;142129;-77
2023/09/29 01:02:49;;;;;;;2.28;1.70;;;;;;;;;;7300740;19;141210;-76
2023/09/29 01:05:17;;;;;;;2.53;1.70;;;;;;;;;;7299216;19;141155;-76
2023/09/29 01:07:44;;;;;;;1.80;1.52;;;;;;;;;;7300846;19;141650;-76
2023/09/29 01:10:11;;;;;;;2.70;1.67;;;;;;;;;;7300134;19;144534;-76
2023/09/29 01:12:38;;;;;;;2.17;1.58;;;;;;;;;;7301286;19;140642;-76
2023/09/29 01:15:05;;;;;;;2.53;1.83;;;;;;;;;;7300755;19;140743;-79
2023/09/29 01:17:32;;;;;;;2.13;1.52;;;;;;;;;;7300791;19;141262;-79
2023/09/29 01:19:59;;;;;;;3.20;1.50;;;;;;;;;;7299537;19;141878;-81
2023/09/29 01:22:30;;;;;;;2.78;1.55;;;;;;;;;;7300861;19;140703;-80
2023/09/29 01:24:58;;;;;;;1.63;1.42;;;;;;;;;;7301349;19;140698;-80
2023/09/29 01:27:25;;;;;;;2.92;1.50;;;;;;;;;;7300527;19;141278;-81
2023/09/29 01:29:52;;;;;;;2.25;1.73;;;;;;;;;;7307887;19;140922;-80
2023/09/29 01:32:19;;;;;;;2.30;1.70;;;;;;;;;;7307737;19;140794;-81
2023/09/29 01:34:47;;;;;;;2.88;1.80;;;;;;;;;;7306472;19;140921;-80
2023/09/29 01:37:14;;;;;;;1.85;1.58;;;;;;;;;;7306891;19;142059;-80
2023/09/29 01:39:43;;;;;;;2.38;1.70;;;;;;;;;;7306537;19;142583;-80
2023/09/29 01:42:11;;;;;;;1.88;1.58;;;;;;;;;;7306496;19;140485;-80
2023/09/29 01:44:38;;;;;;;4.20;1.85;;;;;;;;;;7307176;19;140727;-79
2023/09/29 01:47:06;;;;;;;2.05;1.58;;;;;;;;;;7306733;19;141026;-79
2023/09/29 01:49:33;;;;;;;2.58;1.58;;;;;;;;;;7307199;19;143027;-79
2023/09/29 01:52:00;;;;;;;2.35;1.60;;;;;;;;;;7306867;19;140633;-79
2023/09/29 01:54:28;;;;;;;2.53;1.80;;;;;;;;;;7306036;19;140713;-79
2023/09/29 01:56:55;;;;;;;2.55;1.80;;;;;;;;;;7307092;19;141284;-79
2023/09/29 01:59:22;;;;;;;2.80;1.92;;;;;;;;;;7306559;19;142515;-78
2023/09/29 02:01:50;;;;;;;3.00;1.65;;;;;;;;;;7307198;19;140502;-78
2023/09/29 02:04:17;;;;;;;2.80;1.80;;;;;;;;;;7306392;19;140536;-78
2023/09/29 02:06:44;;;;;;;3.92;1.70;;;;;;;;;;7305272;19;140992;-78
2023/09/29 02:09:11;;;;;;;2.63;1.83;;;;;;;;;;7306001;19;142437;-76
2023/09/29 02:11:40;;;;;;;2.78;1.73;;;;;;;;;;7306552;19;141383;-76
2023/09/29 02:14:07;;;;;;;2.80;1.80;;;;;;;;;;7304353;19;140769;-76
2023/09/29 02:16:34;;;;;;;2.33;1.70;;;;;;;;;;7306543;19;142023;-76
2023/09/29 02:19:02;;;;;;;2.78;1.73;;;;;;;;;;7305362;19;142009;-76
2023/09/29 02:21:31;;;;;;;2.00;1.73;;;;;;;;;;7305958;19;140723;-76
2023/09/29 02:23:58;;;;;;;2.45;1.70;;;;;;;;;;7304858;19;140666;-76
2023/09/29 02:26:28;;;;;;;2.53;1.70;;;;;;;;;;7303719;19;141701;-78
2023/09/29 02:28:56;;;;;;;2.05;1.70;;;;;;;;;;7306269;19;142754;-77
2023/09/29 02:31:26;;;;;;;2.10;1.70;;;;;;;;;;7306421;19;140553;-76
2023/09/29 02:33:53;;;;;;;2.30;1.70;;;;;;;;;;7305986;19;140610;-76
2023/09/29 02:36:21;;;;;;;2.53;1.90;;;;;;;;;;7305163;19;140579;-78
2023/09/29 02:38:48;;;;;;;1.92;1.65;;;;;;;;;;7304506;19;140886;-77
2023/09/29 02:41:15;;;;;;;2.53;1.80;;;;;;;;;;7303410;19;140711;-77
2023/09/29 02:43:42;;;;;;;2.08;1.75;;;;;;;;;;7305762;19;140496;-77
2023/09/29 02:46:14;;;;;;;2.42;1.67;;;;;;;;;;7304890;19;141957;-77
2023/09/29 02:48:41;;;;;;;2.38;1.70;;;;;;;;;;7305072;19;141920;-77
2023/09/29 02:51:18;;;;;;;2.70;1.80;;;;;;;;;;7303658;19;140644;-77
2023/09/29 02:53:54;;;;;;;4.15;1.65;;;;;;;;;;7305395;19;140553;-76
2023/09/29 02:56:23;;;;;;;2.05;1.63;;;;;;;;;;7303733;19;141539;-76
2023/09/29 02:58:54;;;;;;;1.95;1.73;;;;;;;;;;7304739;19;140989;-76
2023/09/29 03:01:22;;;;;;;2.55;1.73;;;;;;;;;;7304674;19;140902;-77
2023/09/29 03:03:52;;;;;;;2.00;1.70;;;;;;;;;;7305269;19;140484;-77
2023/09/29 03:06:21;;;;;;;2.17;1.65;;;;;;;;;;7304076;19;140644;-76
2023/09/29 03:08:54;;;;;;;2.20;1.80;;;;;;;;;;7303934;19;140646;-77
2023/09/29 03:11:22;;;;;;;2.85;1.90;;;;;;;;;;7304387;19;141841;-77
2023/09/29 03:13:49;;;;;;;2.03;1.60;;;;;;;;;;7304993;19;140517;-77
2023/09/29 03:16:18;;;;;;;2.10;1.48;;;;;;;;;;7303317;19;141031;-77
2023/09/29 03:18:46;;;;;;;2.85;1.60;;;;;;;;;;7304875;19;142156;-77
2023/09/29 03:21:14;;;;;;;1.90;1.70;;;;;;;;;;7303538;19;140715;-76
2023/09/29 03:23:43;;;;;;;2.38;1.60;;;;;;;;;;7303205;19;140514;-77
2023/09/29 03:26:10;;;;;;;2.10;1.52;;;;;;;;;;7303925;19;140989;-77
2023/09/29 03:28:38;;;;;;;2.88;1.63;;;;;;;;;;7304027;19;142772;-77
2023/09/29 03:31:08;;;;;;;1.70;1.42;;;;;;;;;;7304406;19;140419;-76
2023/09/29 03:33:35;;;;;;;3.20;1.98;;;;;;;;;;7303459;19;140910;-77
2023/09/29 03:36:03;;;;;;;4.60;1.90;;;;;;;;;;7303337;19;140842;-77
2023/09/29 03:38:31;;;;;;;3.83;1.50;;;;;;;;;;7302841;19;142618;-77
2023/09/29 03:40:58;;;;;;;2.33;1.60;;;;;;;;;;7303770;19;140410;-78
2023/09/29 03:43:25;;;;;;;3.10;1.63;;;;;;;;;;7303369;19;140409;-77
2023/09/29 03:45:53;;;;;;;2.38;1.77;;;;;;;;;;7302765;19;141205;-76
2023/09/29 03:48:20;;;;;;;2.05;1.52;;;;;;;;;;7301968;19;142970;-78
2023/09/29 03:50:49;;;;;;;2.10;1.60;;;;;;;;;;7301331;19;140674;-77
2023/09/29 03:53:17;;;;;;;2.58;1.70;;;;;;;;;;7303365;19;140746;-76
2023/09/29 03:55:46;;;;;;;3.60;1.92;;;;;;;;;;7303321;19;141282;-76
2023/09/29 03:58:16;;;;;;;2.40;1.47;;;;;;;;;;7302931;19;141854;-76
2023/09/29 04:00:43;;;;;;;2.90;1.70;;;;;;;;;;7301401;19;140712;-79
2023/09/29 04:03:11;;;;;;;1.90;1.42;;;;;;;;;;7302447;19;140764;-78
2023/09/29 04:05:38;;;;;;;1.55;1.30;;;;;;;;;;7301664;19;141164;-79
2023/09/29 04:08:05;;;;;;;2.53;1.70;;;;;;;;;;7302412;19;140683;-77
2023/09/29 04:10:32;;;;;;;2.78;1.80;;;;;;;;;;7303232;19;140711;-77
2023/09/29 04:12:59;;;;;;;2.90;1.52;;;;;;;;;;7302996;19;140700;-78
2023/09/29 04:15:27;;;;;;;2.30;1.50;;;;;;;;;;7301590;19;140972;-77
2023/09/29 04:17:54;;;;;;;2.25;1.70;;;;;;;;;;7302281;19;141938;-77
2023/09/29 04:20:21;;;;;;;2.70;1.80;;;;;;;;;;7301157;19;140746;-77
2023/09/29 04:22:48;;;;;;;2.40;1.63;;;;;;;;;;7302008;19;140690;-76
2023/09/29 04:25:16;;;;;;;3.03;1.70;;;;;;;;;;7301993;19;141061;-76
2023/09/29 04:27:44;;;;;;;1.50;1.40;;;;;;;;;;7300477;19;141749;-78
2023/09/29 04:30:12;;;;;;;2.88;1.58;;;;;;;;;;7302052;19;140527;-79
2023/09/29 04:32:47;;;;;;;2.60;1.42;;;;;;;;;;7303781;19;140496;-80
2023/09/29 04:35:18;;;;;;;2.45;1.60;;;;;;;;;;7309175;19;140963;-80
2023/09/29 04:37:45;;;;;;;2.60;1.55;;;;;;;;;;7299565;19;142136;-81
2023/09/29 04:40:12;;;;;;;3.05;1.63;;;;;;;;;;7300255;19;140833;-77
2023/09/29 04:42:39;;;;;;;1.75;1.55;;;;;;;;;;7301466;19;140859;-78
2023/09/29 04:45:08;;;;;;;1.85;1.50;;;;;;;;;;7301298;19;140861;-76
2023/09/29 04:47:35;;;;;;;1.98;1.38;;;;;;;;;;7300507;19;142045;-77
2023/09/29 04:50:02;;;;;;;2.08;1.48;;;;;;;;;;7301626;19;140500;-76
2023/09/29 04:52:29;;;;;;;1.40;1.30;;;;;;;;;;7299789;19;140599;-76
2023/09/29 04:54:56;;;;;;;2.20;1.40;;;;;;;;;;7299183;19;142503;-77
2023/09/29 04:57:23;;;;;;;2.83;1.70;;;;;;;;;;7300470;19;142189;-77
2023/09/29 04:59:50;;;;;;;3.25;1.85;;;;;;;;;;7301493;19;140433;-78
2023/09/29 05:02:20;;;;;;;1.63;1.50;;;;;;;;;;7300282;19;140936;-78
2023/09/29 05:04:47;;;;;;;2.55;1.70;;;;;;;;;;7300823;19;142483;-78
2023/09/29 05:07:14;;;;;;;1.67;1.58;;;;;;;;;;7310369;19;142539;-78
2023/09/29 05:09:42;;;;;;;2.00;1.70;;;;;;;;;;7299883;19;140699;-77
2023/09/29 05:12:09;;;;;;;2.53;1.50;;;;;;;;;;7299956;19;142105;-79
2023/09/29 05:14:40;;;;;;;1.95;1.48;;;;;;;;;;7300205;19;142470;-79
2023/09/29 05:17:08;;;;;;;1.95;1.50;;;;;;;;;;7300822;19;143069;-79
2023/09/29 05:19:35;;;;;;;1.98;1.50;;;;;;;;;;7300753;19;140896;-79
2023/09/29 05:22:02;;;;;;;2.03;1.60;;;;;;;;;;7299838;19;141014;-79
2023/09/29 05:24:29;;;;;;;2.10;1.60;;;;;;;;;;7300334;19;140907;-77
2023/09/29 05:26:56;;;;;;;1.77;1.40;;;;;;;;;;7300452;19;142031;-77
2023/09/29 05:29:23;;;;;;;2.58;1.80;;;;;;;;;;7300927;19;141176;-77
2023/09/29 05:31:50;;;;;;;2.25;1.60;;;;;;;;;;7300846;19;140513;-78
2023/09/29 05:34:18;;;;;;;2.67;1.42;;;;;;;;;;7299618;19;142046;-77
2023/09/29 05:36:45;;;;;;;3.75;1.98;;;;;;;;;;7298257;19;142504;-77
2023/09/29 05:39:12;;;;;;;2.13;1.70;;;;;;;;;;7300330;19;140767;-77
2023/09/29 05:41:39;;;;;;;2.30;1.70;;;;;;;;;;7299634;19;140708;-77
2023/09/29 05:44:06;;;;;;;2.13;1.40;;;;;;;;;;7299880;19;141771;-77
2023/09/29 05:46:33;;;;;;;2.08;1.67;;;;;;;;;;7299769;19;142337;-77
2023/09/29 05:49:01;;;;;;;1.95;1.60;;;;;;;;;;7299385;19;140681;-76
2023/09/29 05:51:28;;;;;;;2.30;1.60;;;;;;;;;;7300481;19;140578;-76
2023/09/29 05:53:55;;;;;;;2.25;1.75;;;;;;;;;;7299668;19;140530;-76
2023/09/29 05:56:22;;;;;;;2.55;1.60;;;;;;;;;;7299153;19;142601;-75
2023/09/29 05:58:49;;;;;;;1.38;1.23;;;;;;;;;;7299608;19;140419;-76
2023/09/29 06:01:16;;;;;;;1.63;1.30;;;;;;;;;;7297492;19;140630;-77
2023/09/29 06:03:44;;;;;;;2.53;1.58;;;;;;;;;;7301186;19;140475;-77
2023/09/29 06:06:11;;;;;;;2.10;1.45;;;;;;;;;;7299313;19;142528;-77
2023/09/29 06:08:39;;;;;;;2.38;1.70;;;;;;;;;;7298257;19;140570;-76
2023/09/29 06:11:08;;;;;;;2.03;1.52;;;;;;;;;;7299418;19;141025;-75
2023/09/29 06:13:37;;;;;;;2.42;1.45;;;;;;;;;;7300235;19;140801;-76
2023/09/29 06:16:05;;;;;;;1.60;1.50;;;;;;;;;;7304398;19;142057;-76
2023/09/29 06:18:32;;;;;;;1.50;1.40;;;;;;;;;;7306028;19;140598;-77
2023/09/29 06:21:00;;;;;;;2.15;1.60;;;;;;;;;;7306326;19;140721;-76
2023/09/29 06:23:27;;;;;;;2.00;1.65;;;;;;;;;;7305500;19;140896;-77
2023/09/29 06:26:01;;;;;;;2.83;1.60;;;;;;;;;;7303334;19;140913;-76
2023/09/29 06:28:28;;;;;;;1.48;1.38;;;;;;;;;;7306181;19;140887;-75
2023/09/29 06:30:58;;;;;;;2.10;1.65;;;;;;;;;;7305585;19;140517;-76
2023/09/29 06:33:28;;;;;;;1.98;1.45;;;;;;;;;;7306316;19;141438;-74
2023/09/29 06:35:55;;;;;;;8.67;1.70;;;;;;;;;;7304130;19;142328;-75
2023/09/29 06:38:23;;;;;;;2.70;1.77;;;;;;;;;;7304853;19;140686;-75
2023/09/29 06:40:51;;;;;;;2.20;1.55;;;;;;;;;;7305530;19;140819;-76
2023/09/29 06:43:18;;;;;;;3.72;1.75;;;;;;;;;;7304659;19;141242;-76
2023/09/29 06:45:45;;;;;;;2.25;1.55;;;;;;;;;;7304868;19;142803;-76
2023/09/29 06:48:27;;;;;;;4.47;1.83;;;;;;;;;;7305123;19;140556;-76
2023/09/29 06:50:59;;;;;;;2.05;1.63;;;;;;;;;;7304358;19;140583;-74
2023/09/29 06:53:28;;;;;;;4.65;1.58;;;;;;;;;;7298844;19;141089;-76
2023/09/29 06:55:57;;;;;;;2.65;1.50;;;;;;;;;;7303113;19;140904;-75
2023/09/29 06:58:25;;;;;;;3.90;1.60;;;;;;;;;;7303890;19;140952;-76
2023/09/29 07:00:52;;;;;;;3.22;1.60;;;;;;;;;;7303545;19;140541;-77
2023/09/29 07:03:20;;;;;;;1.85;1.50;;;;;;;;;;7303427;19;141216;-76
2023/09/29 07:05:47;;;;;;;2.30;1.67;;;;;;;;;;7303165;19;141231;-77
2023/09/29 07:08:14;;;;;;;2.50;1.90;;;;;;;;;;7303364;19;140759;-76
2023/09/29 07:10:43;;;;;;;3.67;1.60;;;;;;;;;;7304989;19;140737;-77
2023/09/29 07:13:10;;;;;;;3.17;1.50;;;;;;;;;;7303455;19;141501;-77
2023/09/29 07:15:38;;;;;;;3.22;1.65;;;;;;;;;;7305024;19;141881;-76
2023/09/29 07:18:16;;;;;;;2.20;1.55;;;;;;;;;;7303156;19;140575;-76
2023/09/29 07:20:43;;;;;;;3.97;1.90;;;;;;;;;;7302283;19;140738;-76
2023/09/29 07:23:10;;;;;;;3.30;1.50;;;;;;;;;;7303128;19;141253;-76
2023/09/29 07:25:38;;;;;;;1.95;1.40;;;;;;;;;;7302192;19;142809;-76
2023/09/29 07:28:07;;;;;;;3.85;1.73;;;;;;;;;;7304031;19;140525;-76
2023/09/29 07:30:34;;;;;;;3.83;2.10;;;;;;;;;;7304482;19;140642;-76
2023/09/29 07:33:01;;;;;;;3.78;1.58;;;;;;;;;;7302487;19;141709;-76
2023/09/29 07:35:29;;;;;;;3.33;2.00;;;;;;;;;;7303059;19;142012;-77
2023/09/29 07:37:56;;;;;;;3.15;1.73;;;;;;;;;;7303792;19;141801;-78
2023/09/29 07:40:23;;;;;;;2.78;1.95;;;;;;;;;;7302470;19;140630;-77
2023/09/29 07:42:51;;;;;;;4.10;1.80;;;;;;;;;;7303297;19;141726;-77
2023/09/29 07:45:21;;;;;;;2.13;1.50;;;;;;;;;;7303246;19;141501;-77
2023/09/29 07:47:48;;;;;;;3.43;2.00;;;;;;;;;;7303971;19;140958;-77
2023/09/29 07:50:15;;;;;;;5.28;1.70;;;;;;;;;;7302950;19;140422;-77
2023/09/29 07:52:42;;;;;;;3.10;1.73;;;;;;;;;;7300952;19;142078;-77
2023/09/29 07:55:10;;;;;;;3.55;1.63;;;;;;;;;;7303681;19;141102;-77
2023/09/29 07:57:37;;;;;;;3.22;1.75;;;;;;;;;;7303307;19;140701;-77
2023/09/29 08:00:15;;;;;;;2.60;1.85;;;;;;;;;;7303303;19;140484;-77
2023/09/29 08:02:43;;;;;;;4.15;1.90;;;;;;;;;;7300959;19;140966;-76
2023/09/29 08:05:13;;;;;;;2.80;1.65;;;;;;;;;;7302545;19;141781;-75
2023/09/29 08:07:40;;;;;;;3.30;1.80;;;;;;;;;;7302677;19;140917;-76
2023/09/29 08:10:10;;;;;;;2.22;1.70;;;;;;;;;;7302702;19;140854;-76
2023/09/29 08:12:38;;;;;;;2.65;2.05;;;;;;;;;;7302366;19;140996;-76
2023/09/29 08:15:05;;;;;;;2.08;1.70;;;;;;;;;;7300981;19;140961;-77
2023/09/29 08:17:33;;;;;;;2.80;1.63;;;;;;;;;;7302448;19;140811;-78
2023/09/29 08:20:05;;;;;;;3.13;1.90;;;;;;;;;;7302342;19;140606;-78
2023/09/29 08:22:32;;;;;;;2.88;1.83;;;;;;;;;;7301594;19;141969;-78
2023/09/29 08:25:10;;;;;;;2.60;1.70;;;;;;;;;;7301988;19;142763;-77
2023/09/29 08:27:38;;;;;;;2.38;1.90;;;;;;;;;;7302703;19;140526;-77
2023/09/29 08:30:06;;;;;;;3.70;1.92;;;;;;;;;;7302077;19;140483;-78
2023/09/29 08:32:36;;;;;;;3.40;1.75;;;;;;;;;;7302549;19;140991;-78
2023/09/29 08:35:05;;;;;;;3.95;2.00;;;;;;;;;;7300684;19;142181;-77
2023/09/29 08:37:32;;;;;;;2.63;1.85;;;;;;;;;;7299164;19;140377;-77
2023/09/29 08:39:59;;;;;;;2.50;1.90;;;;;;;;;;7302082;19;140649;-77
2023/09/29 08:42:26;;;;;;;2.58;1.80;;;;;;;;;;7301246;19;141672;-78
2023/09/29 08:44:54;;;;;;;2.67;1.70;;;;;;;;;;7300845;19;142322;-76
2023/09/29 08:47:25;;;;;;;3.30;1.90;;;;;;;;;;7302142;19;140382;-78
2023/09/29 08:49:53;;;;;;;2.85;1.80;;;;;;;;;;7301980;19;140717;-78
2023/09/29 08:52:20;;;;;;;2.40;1.80;;;;;;;;;;7300966;19;141034;-78
2023/09/29 08:54:49;;;;;;;2.83;1.90;;;;;;;;;;7298956;19;142869;-77
2023/09/29 08:57:17;;;;;;;5.13;2.03;;;;;;;;;;7300641;19;140566;-77
2023/09/29 08:59:45;;;;;;;3.35;1.60;;;;;;;;;;7300836;19;140555;-78
2023/09/29 09:02:12;;;;;;;2.45;1.88;;;;;;;;;;7301300;19;141332;-75
2023/09/29 09:04:39;;;;;;;1.90;1.70;;;;;;;;;;7300883;19;141937;-75
2023/09/29 09:07:06;;;;;;;2.75;1.90;;;;;;;;;;7300709;19;140674;-75
2023/09/29 09:09:35;;;;;;;1.95;1.40;;;;;;;;;;7300319;19;140563;-80
2023/09/29 09:12:06;;;;;;;3.85;2.28;;;;;;;;;;7298591;19;140942;-77
2023/09/29 09:14:40;;;;;;;2.28;1.80;;;;;;;;;;7298911;19;143451;-76
2023/09/29 09:17:08;;;;;;;2.90;1.92;;;;;;;;;;7299757;19;140643;-76
2023/09/29 09:19:43;;;;;;;3.75;2.00;;;;;;;;;;7297408;19;140673;-76
2023/09/29 09:22:14;;;;;;;2.38;1.90;;;;;;;;;;7299677;19;140708;-74
2023/09/29 09:24:43;;;;;;;4.05;1.90;;;;;;;;;;7297164;19;142481;-73
2023/09/29 09:27:10;;;;;;;1.98;1.65;;;;;;;;;;7299304;19;140852;-74
2023/09/29 09:29:44;;;;;;;2.78;1.60;;;;;;;;;;7300646;19;141402;-72
2023/09/29 09:32:12;;;;;;;2.20;1.80;;;;;;;;;;7296152;19;140485;-73
2023/09/29 09:34:40;;;;;;;2.10;1.70;;;;;;;;;;7300185;19;140960;-73
2023/09/29 09:37:08;;;;;;;2.58;1.95;;;;;;;;;;7298973;19;141162;-73
2023/09/29 09:39:35;;;;;;;2.10;1.80;;;;;;;;;;7298645;19;140591;-73
2023/09/29 09:42:05;;;;;;;1.80;1.70;;;;;;;;;;7298075;19;140484;-73
2023/09/29 09:44:32;;;;;;;2.87;1.70;;;;;;;;;;7298028;19;143217;-73
2023/09/29 09:47:00;;;;;;;2.70;1.77;;;;;;;;;;7298500;19;140718;-73
2023/09/29 09:49:36;;;;;;;2.33;1.70;;;;;;;;;;7301578;19;140449;-73
2023/09/29 09:52:12;;;;;;;1.83;1.60;;;;;;;;;;7304811;19;142692;-74
2023/09/29 09:54:45;;;;;;;2.05;1.70;;;;;;;;;;7304804;19;140783;-75
2023/09/29 09:57:15;;;;;;;2.30;1.75;;;;;;;;;;7306383;19;140930;-73
2023/09/29 09:59:42;;;;;;;2.35;1.80;;;;;;;;;;7305070;19;140706;-73
2023/09/29 10:02:11;;;;;;;2.03;1.75;;;;;;;;;;7303470;19;141345;-76
2023/09/29 10:04:43;;;;;;;2.17;1.70;;;;;;;;;;7306903;19;140712;-74
2023/09/29 10:07:14;;;;;;;2.85;1.88;;;;;;;;;;7305200;19;140875;-76
2023/09/29 10:09:43;;;;;;;4.38;2.10;;;;;;;;;;7303997;19;140850;-74
2023/09/29 10:12:22;;;;;;;2.58;1.77;;;;;;;;;;7303063;19;141184;-73
2023/09/29 10:14:49;;;;;;;2.67;1.80;;;;;;;;;;7305874;19;142567;-76
2023/09/29 10:17:16;;;;;;;3.22;1.95;;;;;;;;;;7304757;19;140737;-77
2023/09/29 10:19:50;;;;;;;3.72;1.90;;;;;;;;;;7303745;19;140722;-76
2023/09/29 10:22:24;;;;;;;2.30;1.73;;;;;;;;;;7306392;19;140669;-77
2023/09/29 10:24:56;;;;;;;1.85;1.52;;;;;;;;;;7302091;19;143031;-78
2023/09/29 10:27:28;;;;;;;3.55;1.70;;;;;;;;;;7305301;19;140454;-78
2023/09/29 10:30:05;;;;;;;2.60;1.75;;;;;;;;;;7303062;19;142146;-74
2023/09/29 10:32:34;;;;;;;4.45;2.00;;;;;;;;;;7304709;19;143085;-76
2023/09/29 10:35:05;;;;;;;3.03;1.85;;;;;;;;;;7304206;19;141254;-76
2023/09/29 10:37:41;;;;;;;2.53;1.70;;;;;;;;;;7303944;19;140490;-76
2023/09/29 10:40:19;;;;;;;2.53;2.00;;;;;;;;;;7304196;19;140580;-75
2023/09/29 10:42:47;;;;;;;2.72;1.88;;;;;;;;;;7305388;19;140823;-76
2023/09/29 10:45:25;;;;;;;2.58;1.90;;;;;;;;;;7303282;19;141981;-76
2023/09/29 10:48:13;;;;;;;2.72;1.90;;;;;;;;;;7302961;19;140615;-75
2023/09/29 10:50:49;;;;;;;2.78;1.80;;;;;;;;;;7303085;19;140368;-72
2023/09/29 10:53:21;;;;;;;3.17;1.88;;;;;;;;;;7302178;19;142849;-74
2023/09/29 10:55:50;;;;;;;2.50;1.70;;;;;;;;;;7303501;19;142578;-73
2023/09/29 10:58:19;;;;;;;3.42;1.70;;;;;;;;;;7304707;19;140551;-73
2023/09/29 11:03:52;;;;;;;3.17;1.85;;;;;;;;;;7304303;19;142037;-76
2023/09/29 11:06:19;;;;;;;2.80;1.90;;;;;;;;;;7303680;19;141954;-76
2023/09/29 11:08:53;;;;;;;2.40;1.90;;;;;;;;;;7303073;19;140500;-76
2023/09/29 11:11:22;;;;;;;3.13;1.80;;;;;;;;;;7303533;19;140630;-74
2023/09/29 11:13:58;;;;;;;2.53;1.88;;;;;;;;;;7302790;19;141643;-75
2023/09/29 11:16:30;;;;;;;2.83;1.90;;;;;;;;;;7306272;19;140826;-75
2023/09/29 11:19:10;;;;;;;3.23;2.30;;;;;;;;;;7303262;19;140920;-75
2023/09/29 11:21:38;;;;;;;2.50;1.95;;;;;;;;;;7303192;19;140877;-75
2023/09/29 11:24:07;;;;;;;2.97;2.05;;;;;;;;;;7302561;19;140680;-74
2023/09/29 11:26:34;;;;;;;2.47;2.08;;;;;;;;;;7302408;19;141616;-74
2023/09/29 11:29:02;;;;;;;3.63;2.13;;;;;;;;;;7303680;19;140729;-76
2023/09/29 11:31:29;;;;;;;3.10;1.98;;;;;;;;;;7301524;19;140827;-76
2023/09/29 11:33:57;;;;;;;5.22;2.35;;;;;;;;;;7307453;19;140828;-76
2023/09/29 11:36:27;;;;;;;2.75;2.20;;;;;;;;;;7306313;19;142430;-76
2023/09/29 11:38:55;;;;;;;2.72;1.98;;;;;;;;;;7302467;19;141801;-76
2023/09/29 11:41:22;;;;;;;3.55;1.85;;;;;;;;;;7302816;19;140569;-76
2023/09/29 11:43:50;;;;;;;2.47;2.00;;;;;;;;;;7302294;19;141743;-76
2023/09/29 11:46:18;;;;;;;1.92;1.73;;;;;;;;;;7303179;19;142640;-75
2023/09/29 11:48:46;;;;;;;2.65;2.03;;;;;;;;;;7303456;19;140747;-76
2023/09/29 11:51:15;;;;;;;2.47;2.05;;;;;;;;;;7303370;19;140570;-76
2023/09/29 11:53:43;;;;;;;2.70;2.17;;;;;;;;;;7301971;19;140772;-76
2023/09/29 11:56:11;;;;;;;2.20;1.90;;;;;;;;;;7303010;19;141881;-77
2023/09/29 11:58:39;;;;;;;3.35;2.17;;;;;;;;;;7302868;19;140625;-77
2023/09/29 12:01:08;;;;;;;2.88;2.08;;;;;;;;;;7302772;19;140697;-79
2023/09/29 12:03:36;;;;;;;2.75;2.10;;;;;;;;;;7301208;19;140742;-78
2023/09/29 12:06:03;;;;;;;2.90;2.28;;;;;;;;;;7302116;19;142023;-78
2023/09/29 12:08:30;;;;;;;4.50;2.55;;;;;;;;;;7303225;19;140445;-77
2023/09/29 12:10:58;;;;;;;4.07;2.70;;;;;;;;;;7301770;19;140571;-77
2023/09/29 12:13:26;;;;;;;3.50;2.35;;;;;;;;;;7300075;19;141177;-77
2023/09/29 12:15:53;;;;;;;3.88;2.40;;;;;;;;;;7301521;19;142071;-78
2023/09/29 12:18:20;;;;;;;4.68;2.63;;;;;;;;;;7302002;19;140615;-78
2023/09/29 12:20:52;;;;;;;2.80;2.50;;;;;;;;;;7301600;19;140645;-75
2023/09/29 12:23:19;;;;;;;3.42;2.60;;;;;;;;;;7300561;19;141524;-76
2023/09/29 12:25:47;;;;;;;4.07;2.92;;;;;;;;;;7301013;19;141589;-75
2023/09/29 12:28:14;;;;;;;3.72;2.78;;;;;;;;;;7301655;19;140478;-74
2023/09/29 12:30:43;;;;;;;3.50;2.50;;;;;;;;;;7302066;19;140768;-73
2023/09/29 12:33:10;;;;;;;4.82;2.78;;;;;;;;;;7301491;19;141286;-75
2023/09/29 12:35:41;;;;;;;3.92;2.85;;;;;;;;;;7300582;19;142248;-75
2023/09/29 12:38:08;;;;;;;3.35;2.83;;;;;;;;;;7300654;19;140640;-74
2023/09/29 12:40:37;;;;;;;3.78;2.90;;;;;;;;;;7299218;19;140889;-74
2023/09/29 12:43:04;;;;;;;3.83;2.58;;;;;;;;;;7297405;19;141060;-74
2023/09/29 12:45:31;;;;;;;3.10;2.80;;;;;;;;;;7297536;19;141938;-74
2023/09/29 12:47:59;;;;;;;4.05;2.90;;;;;;;;;;7299701;19;140539;-74
2023/09/29 12:50:27;;;;;;;4.65;3.08;;;;;;;;;;7298727;19;140459;-75
2023/09/29 12:52:54;;;;;;;4.38;3.10;;;;;;;;;;7300164;19;140899;-75
2023/09/29 12:55:22;;;;;;;3.30;2.85;;;;;;;;;;7300026;19;141432;-74
2023/09/29 12:57:52;;;;;;;4.45;2.85;;;;;;;;;;7301391;19;140385;-74
2023/09/29 13:00:20;;;;;;;3.78;2.55;;;;;;;;;;7299811;19;140614;-74
2023/09/29 13:02:49;;;;;;;2.88;2.58;;;;;;;;;;7299034;19;141695;-73
2023/09/29 13:05:17;;;;;;;3.47;2.67;;;;;;;;;;7300097;19;141551;-74
2023/09/29 13:07:49;;;;;;;3.50;2.60;;;;;;;;;;7300414;19;140868;-73
2023/09/29 13:10:18;;;;;;;4.07;3.03;;;;;;;;;;7299536;19;140484;-76
2023/09/29 13:12:51;;;;;;;4.05;2.63;;;;;;;;;;7298483;19;142637;-75
2023/09/29 13:15:19;;;;;;;4.97;3.00;;;;;;;;;;7299144;19;142074;-76
2023/09/29 13:17:47;;;;;;;3.35;2.80;;;;;;;;;;7300786;19;140581;-76
2023/09/29 13:20:14;;;;;;;4.53;2.65;;;;;;;;;;7300856;19;140907;-74
2023/09/29 13:22:41;;;;;;;4.25;2.63;;;;;;;;;;7300102;19;142604;-74
2023/09/29 13:25:09;;;;;;;4.43;2.80;;;;;;;;;;7297665;19;143066;-74
2023/09/29 13:27:36;;;;;;;3.85;2.60;;;;;;;;;;7300382;19;141616;-80
2023/09/29 13:30:04;;;;;;;3.53;2.70;;;;;;;;;;7297683;19;141009;-74
2023/09/29 13:32:32;;;;;;;4.88;2.70;;;;;;;;;;7300139;19;140948;-74
2023/09/29 13:34:59;;;;;;;3.58;2.78;;;;;;;;;;7300224;19;142661;-75
2023/09/29 13:37:33;;;;;;;4.50;2.97;;;;;;;;;;7297668;19;140703;-77
2023/09/29 13:40:01;;;;;;;3.10;2.58;;;;;;;;;;7298109;19;140958;-76
2023/09/29 13:42:28;;;;;;;4.20;2.58;;;;;;;;;;7296590;19;142341;-76
2023/09/29 13:44:55;;;;;;;4.22;2.50;;;;;;;;;;7297535;19;141670;-77
2023/09/29 13:47:24;;;;;;;3.85;2.78;;;;;;;;;;7298573;19;140622;-78
2023/09/29 13:49:52;;;;;;;6.25;2.80;;;;;;;;;;7295846;19;140907;-76
2023/09/29 13:52:19;;;;;;;4.55;2.60;;;;;;;;;;7299028;19;142176;-75
2023/09/29 13:54:47;;;;;;;3.67;2.60;;;;;;;;;;7297233;19;142074;-74
2023/09/29 13:57:15;;;;;;;3.65;2.78;;;;;;;;;;7296942;19;140921;-74
2023/09/29 13:59:42;;;;;;;3.35;2.50;;;;;;;;;;7297182;19;141185;-74
2023/09/29 14:02:09;;;;;;;3.92;2.60;;;;;;;;;;7297708;19;141590;-74
2023/09/29 14:04:40;;;;;;;3.70;2.72;;;;;;;;;;7297236;19;140907;-76
2023/09/29 14:07:08;;;;;;;4.50;2.70;;;;;;;;;;7298494;19;140540;-76
2023/09/29 14:09:36;;;;;;;4.45;2.58;;;;;;;;;;7296940;19;140565;-78
2023/09/29 14:12:08;;;;;;;3.67;2.67;;;;;;;;;;7296347;19;140976;-77
2023/09/29 14:14:36;;;;;;;3.20;2.50;;;;;;;;;;7297263;19;142769;-78
2023/09/29 14:17:04;;;;;;;3.90;2.25;;;;;;;;;;7297064;19;140561;-76
2023/09/29 14:19:32;;;;;;;6.90;2.70;;;;;;;;;;7297291;19;140603;-77
2023/09/29 14:21:59;;;;;;;3.85;2.65;;;;;;;;;;7297564;19;142707;-77
2023/09/29 14:24:27;;;;;;;5.40;3.00;;;;;;;;;;7295573;19;142740;-77
2023/09/29 14:26:54;;;;;;;4.60;2.55;;;;;;;;;;7298960;19;140972;-77
2023/09/29 14:29:21;;;;;;;3.50;2.50;;;;;;;;;;7296834;19;141422;-76
2023/09/29 14:31:49;;;;;;;3.45;2.53;;;;;;;;;;7298354;19;142131;-77
2023/09/29 14:34:17;;;;;;;5.65;2.70;;;;;;;;;;7297098;19;142400;-77
2023/09/29 14:36:44;;;;;;;4.68;2.78;;;;;;;;;;7301573;19;140892;-77
2023/09/29 14:39:15;;;;;;;6.43;2.50;;;;;;;;;;7304517;19;140769;-75
2023/09/29 14:41:48;;;;;;;4.88;2.95;;;;;;;;;;7305481;19;142443;-76
2023/09/29 14:44:15;;;;;;;2.95;2.42;;;;;;;;;;7304855;19;142035;-77
2023/09/29 14:46:43;;;;;;;3.95;2.75;;;;;;;;;;7304291;19;140586;-77